Time;durP1;ratioP1;P1;durP2;ratioP2;P2;SDS_P1;SDS_P2;PMS_P1;PMS_P2;Temp;Humidity;BMP_temperature;BMP_pressure;BME280_temperature;BME280_humidity;BME280_pressure;Samples;Min_cycle;Max_cycle;Signal;HPM_P1;HPM_P2
2024/03/12 00:00:07;;;;;;;8.13;5.00;;;6.10;99.90;;;;;;5115499;28;20197;-79
2024/03/12 00:02:35;;;;;;;9.87;5.80;;;6.10;1.00;;;;;;5115896;28;20285;-79
2024/03/12 00:05:08;;;;;;;9.50;5.60;;;6.70;1.00;;;;;;5113241;28;20265;-78
2024/03/12 00:07:35;;;;;;;8.80;5.30;;;6.90;1.00;;;;;;5110585;28;20639;-80
2024/03/12 00:10:05;;;;;;;8.70;4.87;;;7.00;1.00;;;;;;5113621;28;20205;-79
2024/03/12 00:12:34;;;;;;;8.87;5.50;;;6.60;1.00;;;;;;5117401;28;20203;-80
2024/03/12 00:15:01;;;;;;;10.87;5.97;;;7.00;1.00;;;;;;5115658;28;20587;-80
2024/03/12 00:17:28;;;;;;;10.67;5.60;;;6.90;1.00;;;;;;5114365;28;20200;-77
2024/03/12 00:19:55;;;;;;;7.23;4.73;;;6.90;1.00;;;;;;5115637;28;20200;-79
2024/03/12 00:22:23;;;;;;;7.67;4.97;;;6.80;1.00;;;;;;5112244;28;20222;-80
2024/03/12 00:24:50;;;;;;;9.77;5.40;;;6.80;1.00;;;;;;5114195;28;20201;-79
2024/03/12 00:27:19;;;;;;;8.70;5.40;;;6.80;1.00;;;;;;5113137;28;20197;-80
2024/03/12 00:29:49;;;;;;;11.43;5.90;;;6.80;1.00;;;;;;5112839;28;20201;-80
2024/03/12 00:32:17;;;;;;;8.60;5.30;;;6.60;99.90;;;;;;5117271;28;20285;-80
2024/03/12 00:34:45;;;;;;;8.87;5.13;;;7.00;1.00;;;;;;5116227;28;20228;-80
2024/03/12 00:37:12;;;;;;;9.67;5.90;;;6.70;99.90;;;;;;5120069;27;20292;-78
2024/03/12 00:39:40;;;;;;;8.63;5.43;;;6.60;99.90;;;;;;5117724;28;20262;-79
2024/03/12 00:42:07;;;;;;;8.87;4.90;;;6.70;1.00;;;;;;5114365;28;20252;-79
2024/03/12 00:44:34;;;;;;;8.10;5.17;;;6.80;1.00;;;;;;5110629;28;20347;-79
2024/03/12 00:47:03;;;;;;;8.00;4.93;;;6.80;99.90;;;;;;5103454;28;20205;-79
2024/03/12 00:49:30;;;;;;;8.87;5.10;;;6.90;99.90;;;;;;5116201;28;20209;-80
2024/03/12 00:51:56;;;;;;;8.13;5.00;;;6.70;99.90;;;;;;5107772;28;20226;-79
2024/03/12 00:54:24;;;;;;;10.37;5.17;;;6.70;99.90;;;;;;5110209;28;20273;-80
2024/03/12 00:56:51;;;;;;;10.20;5.13;;;6.70;99.90;;;;;;5107643;28;21706;-79
2024/03/12 00:59:19;;;;;;;8.50;4.80;;;6.80;99.90;;;;;;5110813;28;20222;-80
2024/03/12 01:01:46;;;;;;;7.20;4.87;;;6.80;99.90;;;;;;5106147;28;20216;-79
2024/03/12 01:04:16;;;;;;;9.03;5.30;;;7.00;66.50;;;;;;5106118;28;20198;-79
2024/03/12 01:06:44;;;;;;;8.47;5.33;;;6.70;87.30;;;;;;5110658;28;20197;-79
2024/03/12 01:09:13;;;;;;;7.37;5.20;;;6.60;99.90;;;;;;5114011;28;20735;-80
2024/03/12 01:11:40;;;;;;;10.17;5.17;;;6.60;99.90;;;;;;5107926;28;20229;-79
2024/03/12 01:14:07;;;;;;;8.50;5.20;;;6.50;99.90;;;;;;5114517;28;20236;-80
2024/03/12 01:16:34;;;;;;;7.87;4.80;;;6.40;1.00;;;;;;5107266;28;20221;-79
2024/03/12 01:19:01;;;;;;;6.77;4.57;;;6.30;99.90;;;;;;5112754;28;20647;-80
2024/03/12 01:21:32;;;;;;;8.10;4.73;;;6.20;99.90;;;;;;5109599;28;20654;-79
2024/03/12 01:23:59;;;;;;;7.83;5.13;;;6.10;1.00;;;;;;5117278;28;20204;-79
2024/03/12 01:26:26;;;;;;;9.70;5.23;;;5.90;1.00;;;;;;5114938;28;20217;-80
2024/03/12 01:28:53;;;;;;;8.40;5.00;;;5.80;1.00;;;;;;5113356;28;20197;-79
2024/03/12 01:31:21;;;;;;;6.73;4.80;;;6.10;1.00;;;;;;5109436;28;20700;-80
2024/03/12 01:33:49;;;;;;;8.00;5.23;;;6.20;1.00;;;;;;5105582;28;20205;-80
2024/03/12 01:36:20;;;;;;;8.40;5.10;;;5.80;1.00;;;;;;5113650;28;20272;-79
2024/03/12 01:38:49;;;;;;;8.67;5.47;;;5.70;1.00;;;;;;5108430;28;20201;-79
2024/03/12 01:41:16;;;;;;;9.77;5.73;;;5.40;1.00;;;;;;5102552;28;20218;-78
2024/03/12 01:43:43;;;;;;;13.60;6.30;;;5.40;1.00;;;;;;5109848;28;20247;-78
2024/03/12 01:46:11;;;;;;;8.97;5.37;;;5.20;99.90;;;;;;5100834;28;20228;-79
2024/03/12 01:48:38;;;;;;;8.43;5.83;;;5.10;99.90;;;;;;5102635;28;20216;-79
2024/03/12 01:51:06;;;;;;;10.03;5.77;;;5.10;1.00;;;;;;5102651;28;20282;-79
2024/03/12 01:53:34;;;;;;;8.60;5.50;;;5.10;1.00;;;;;;5108427;28;20197;-79
2024/03/12 01:56:03;;;;;;;9.03;5.60;;;5.00;1.00;;;;;;5108599;28;20249;-79
2024/03/12 01:58:32;;;;;;;9.13;5.93;;;5.00;1.00;;;;;;5109504;28;20202;-80
2024/03/12 02:00:59;;;;;;;11.90;5.93;;;5.10;1.00;;;;;;5105001;28;20217;-80
2024/03/12 02:03:26;;;;;;;9.53;5.60;;;4.90;1.00;;;;;;5108837;28;20280;-79
2024/03/12 02:05:52;;;;;;;14.17;5.73;;;4.90;1.00;;;;;;5108085;28;20289;-79
2024/03/12 02:08:20;;;;;;;7.33;4.57;;;4.90;1.00;;;;;;5105979;28;20236;-78
2024/03/12 02:10:47;;;;;;;9.63;5.20;;;5.00;1.00;;;;;;5109653;28;20656;-79
2024/03/12 02:13:16;;;;;;;8.77;5.50;;;4.80;1.00;;;;;;5106184;28;20193;-79
2024/03/12 02:15:43;;;;;;;11.27;5.93;;;4.70;1.00;;;;;;5106221;28;20247;-79
2024/03/12 02:18:10;;;;;;;11.67;5.70;;;4.80;1.00;;;;;;5109852;28;20193;-79
2024/03/12 02:20:37;;;;;;;9.20;5.63;;;4.70;1.00;;;;;;5112320;28;20285;-78
2024/03/12 02:23:05;;;;;;;12.03;5.47;;;4.80;99.90;;;;;;5114148;28;20228;-78
2024/03/12 02:25:33;;;;;;;11.07;5.43;;;4.80;27.20;;;;;;5105040;28;20238;-79
2024/03/12 02:28:02;;;;;;;8.33;5.40;;;4.80;58.80;;;;;;5115438;28;20254;-79
2024/03/12 02:30:29;;;;;;;9.20;5.73;;;4.70;1.60;;;;;;5112789;28;20270;-79
2024/03/12 02:32:56;;;;;;;7.07;5.10;;;4.80;44.70;;;;;;5111934;28;20270;-79
2024/03/12 02:35:23;;;;;;;10.90;6.00;;;4.90;1.00;;;;;;5109047;27;20221;-79
2024/03/12 02:37:50;;;;;;;12.40;5.77;;;4.90;1.00;;;;;;5116275;28;20232;-79
2024/03/12 02:40:18;;;;;;;10.17;5.43;;;4.80;1.00;;;;;;5107523;28;20246;-78
2024/03/12 02:42:46;;;;;;;9.70;5.33;;;4.80;1.00;;;;;;5105293;28;20270;-80
2024/03/12 02:45:14;;;;;;;8.60;5.10;;;4.70;1.00;;;;;;5101202;28;20201;-80
2024/03/12 02:47:41;;;;;;;7.97;5.30;;;4.80;1.00;;;;;;5101105;28;20208;-80
2024/03/12 02:50:09;;;;;;;9.90;5.37;;;4.90;1.00;;;;;;5107473;27;20243;-80
2024/03/12 02:52:37;;;;;;;8.47;4.77;;;4.80;1.00;;;;;;5100996;28;20197;-80
2024/03/12 02:55:05;;;;;;;7.50;4.60;;;4.70;1.00;;;;;;5113348;28;20199;-80
2024/03/12 02:57:32;;;;;;;9.23;5.03;;;4.70;1.00;;;;;;5106405;28;20228;-78
2024/03/12 03:00:00;;;;;;;8.53;4.83;;;5.00;1.00;;;;;;5105758;28;20237;-80
2024/03/12 03:02:29;;;;;;;8.13;5.33;;;5.00;1.00;;;;;;5115165;28;20200;-80
2024/03/12 03:04:55;;;;;;;9.37;4.90;;;5.10;1.00;;;;;;5107381;28;20201;-80
2024/03/12 03:07:24;;;;;;;9.73;6.07;;;5.00;1.00;;;;;;5105628;28;20655;-78
2024/03/12 03:09:51;;;;;;;11.00;5.27;;;5.10;1.00;;;;;;5109581;28;20201;-79
2024/03/12 03:12:18;;;;;;;14.07;7.63;;;5.10;1.00;;;;;;5103035;28;20217;-79
2024/03/12 03:14:45;;;;;;;10.73;6.13;;;5.10;1.00;;;;;;5113427;28;20225;-80
2024/03/12 03:17:14;;;;;;;9.13;5.30;;;5.10;1.00;;;;;;5106694;28;20770;-80
2024/03/12 03:19:41;;;;;;;9.93;5.60;;;5.10;1.00;;;;;;5106171;28;20227;-80
2024/03/12 03:22:09;;;;;;;8.07;4.80;;;5.20;1.00;;;;;;5108588;28;20282;-79
2024/03/12 03:24:36;;;;;;;10.87;5.40;;;5.10;1.00;;;;;;5110662;28;20576;-79
2024/03/12 03:27:04;;;;;;;10.83;5.63;;;5.20;1.00;;;;;;5103683;28;20632;-78
2024/03/12 03:29:31;;;;;;;7.90;5.20;;;5.30;1.00;;;;;;5098698;28;20224;-80
2024/03/12 03:31:58;;;;;;;8.57;5.43;;;5.40;1.00;;;;;;5107013;28;20312;-79
2024/03/12 03:34:28;;;;;;;9.63;5.33;;;5.40;1.00;;;;;;5103798;28;20250;-79
2024/03/12 03:36:55;;;;;;;8.80;5.00;;;5.40;1.00;;;;;;5107351;28;20705;-79
2024/03/12 03:39:24;;;;;;;7.90;4.77;;;5.30;1.00;;;;;;5105940;28;20212;-79
2024/03/12 03:41:51;;;;;;;11.40;5.87;;;5.30;1.00;;;;;;5116734;28;20277;-80
2024/03/12 03:44:18;;;;;;;8.73;5.53;;;5.40;1.00;;;;;;5101927;28;20694;-79
2024/03/12 03:46:45;;;;;;;20.90;10.23;;;5.50;1.00;;;;;;5098435;28;20194;-79
2024/03/12 03:49:12;;;;;;;10.13;6.10;;;5.60;1.00;;;;;;5107872;28;20713;-79
2024/03/12 03:51:40;;;;;;;9.33;5.07;;;5.70;1.00;;;;;;5101795;28;20225;-78
2024/03/12 03:54:09;;;;;;;10.43;5.67;;;5.70;1.00;;;;;;5100285;28;20193;-79
2024/03/12 03:56:37;;;;;;;10.40;5.13;;;5.80;1.00;;;;;;5106871;28;20618;-79
2024/03/12 03:59:05;;;;;;;10.83;5.17;;;6.00;1.00;;;;;;5102304;28;20288;-79
2024/03/12 04:01:33;;;;;;;9.77;5.43;;;6.00;99.90;;;;;;5103228;28;20249;-79
2024/03/12 04:04:10;;;;;;;9.40;5.27;;;6.20;99.90;;;;;;5107878;28;20263;-79
2024/03/12 04:06:37;;;;;;;9.30;4.90;;;6.20;99.90;;;;;;5109819;28;20239;-79
2024/03/12 04:09:05;;;;;;;7.33;4.60;;;6.30;99.90;;;;;;5105867;28;20235;-79
2024/03/12 04:11:33;;;;;;;7.87;4.83;;;6.30;99.90;;;;;;5106465;28;20692;-78
2024/03/12 04:14:00;;;;;;;8.73;4.77;;;6.50;99.90;;;;;;5109957;28;20197;-80
2024/03/12 04:16:27;;;;;;;9.17;5.27;;;6.50;1.00;;;;;;5109676;28;20355;-80
2024/03/12 04:18:54;;;;;;;7.97;5.00;;;6.80;1.00;;;;;;5106601;28;20197;-80
2024/03/12 04:21:21;;;;;;;9.17;5.13;;;6.60;1.00;;;;;;5111037;28;20218;-82
2024/03/12 04:23:48;;;;;;;6.80;4.70;;;6.60;1.00;;;;;;5108613;28;20229;-80
2024/03/12 04:26:17;;;;;;;6.97;5.07;;;6.60;1.00;;;;;;5106356;28;20193;-81
2024/03/12 04:28:43;;;;;;;12.43;7.17;;;6.50;1.00;;;;;;5117652;28;20240;-80
2024/03/12 04:31:15;;;;;;;13.83;8.03;;;6.50;43.10;;;;;;5106256;28;20224;-78
2024/03/12 04:33:47;;;;;;;10.23;6.33;;;6.50;99.90;;;;;;5115876;28;20205;-78
2024/03/12 04:36:14;;;;;;;10.67;6.53;;;6.50;99.90;;;;;;5116200;28;20228;-78
2024/03/12 04:38:41;;;;;;;9.57;6.13;;;6.40;99.90;;;;;;5116239;28;20232;-78
2024/03/12 04:41:09;;;;;;;8.30;4.97;;;6.30;99.90;;;;;;5103019;28;20260;-78
2024/03/12 04:43:37;;;;;;;9.50;5.60;;;6.30;1.00;;;;;;5108932;28;20671;-78
2024/03/12 04:46:04;;;;;;;8.97;5.47;;;6.20;1.00;;;;;;5103223;28;20194;-78
2024/03/12 04:48:31;;;;;;;8.10;5.30;;;6.10;1.00;;;;;;5100748;28;20221;-78
2024/03/12 04:50:58;;;;;;;7.93;5.03;;;6.10;1.00;;;;;;5102430;28;20222;-78
2024/03/12 04:53:25;;;;;;;8.57;5.23;;;6.10;1.00;;;;;;5112808;27;20206;-78
2024/03/12 04:55:52;;;;;;;8.17;4.93;;;6.10;99.90;;;;;;5107415;28;20496;-78
2024/03/12 04:58:19;;;;;;;8.03;5.23;;;6.20;99.90;;;;;;5105772;28;20197;-79
2024/03/12 05:00:47;;;;;;;7.87;5.10;;;6.30;99.90;;;;;;5108277;28;20216;-78
2024/03/12 05:03:14;;;;;;;9.13;5.20;;;6.30;99.90;;;;;;5108355;28;20198;-78
2024/03/12 05:05:41;;;;;;;8.87;5.40;;;6.30;99.90;;;;;;5108648;28;20208;-78
2024/03/12 05:08:08;;;;;;;8.87;5.23;;;6.20;99.90;;;;;;5113720;28;20243;-78
2024/03/12 05:10:36;;;;;;;11.07;5.77;;;6.20;99.90;;;;;;5105243;28;20760;-79
2024/03/12 05:13:03;;;;;;;8.90;5.63;;;6.30;99.90;;;;;;5105514;28;20663;-78
2024/03/12 05:15:30;;;;;;;9.23;5.53;;;6.40;99.90;;;;;;5106087;28;20201;-78
2024/03/12 05:17:58;;;;;;;9.83;5.07;;;6.40;99.90;;;;;;5113082;28;20242;-78
2024/03/12 05:20:25;;;;;;;9.33;5.43;;;6.60;99.90;;;;;;5109465;28;20217;-78
2024/03/12 05:22:53;;;;;;;8.50;5.30;;;6.70;1.00;;;;;;5107044;28;20202;-78
2024/03/12 05:25:22;;;;;;;11.37;5.43;;;6.60;1.00;;;;;;5103419;28;20210;-78
2024/03/12 05:27:50;;;;;;;9.40;5.47;;;6.60;1.00;;;;;;5107719;28;20238;-78
2024/03/12 05:30:20;;;;;;;9.43;5.37;;;6.50;1.00;;;;;;5113863;28;20229;-78
2024/03/12 05:32:47;;;;;;;9.30;6.00;;;6.40;1.00;;;;;;5109865;28;20200;-79
2024/03/12 05:35:20;;;;;;;11.13;5.80;;;6.50;1.00;;;;;;5108765;28;20213;-78
2024/03/12 05:38:03;;;;;;;10.20;5.80;;;6.60;1.00;;;;;;5112671;28;20228;-79
2024/03/12 05:40:40;;;;;;;8.97;6.03;;;6.50;1.00;;;;;;5114061;28;22040;-78
2024/03/12 05:48:37;;;;;;;12.60;6.30;;;6.70;1.00;;;;;;5107808;28;20294;-78
2024/03/12 05:51:07;;;;;;;9.83;5.53;;;6.60;37.50;;;;;;5106606;28;20336;-78
2024/03/12 05:53:34;;;;;;;8.93;5.70;;;6.60;21.40;;;;;;5099754;28;20198;-78
2024/03/12 05:56:03;;;;;;;11.60;6.80;;;6.30;25.90;;;;;;5107219;28;20612;-78
2024/03/12 05:58:30;;;;;;;10.87;5.90;;;6.80;1.00;;;;;;5104818;28;20225;-78
2024/03/12 06:00:57;;;;;;;10.10;5.60;;;6.90;1.00;;;;;;5102751;28;20300;-78
2024/03/12 06:03:23;;;;;;;11.27;6.93;;;6.90;1.00;;;;;;5105882;28;20644;-77
2024/03/12 06:05:50;;;;;;;10.57;6.03;;;7.00;1.00;;;;;;5109007;28;20192;-77
2024/03/12 06:08:19;;;;;;;10.50;5.97;;;7.10;1.00;;;;;;5104513;28;20198;-78
2024/03/12 06:10:46;;;;;;;9.53;6.50;;;7.20;99.90;;;;;;5103612;28;20228;-78
2024/03/12 06:13:13;;;;;;;12.07;6.10;;;7.20;99.90;;;;;;5109095;28;20266;-78
2024/03/12 06:15:40;;;;;;;10.03;5.83;;;7.20;1.00;;;;;;5104717;28;20208;-78
2024/03/12 06:18:07;;;;;;;7.90;5.60;;;7.30;99.90;;;;;;5108228;28;20267;-78
2024/03/12 06:20:35;;;;;;;10.13;6.30;;;7.30;99.90;;;;;;5105589;28;20281;-78
2024/03/12 06:23:03;;;;;;;10.73;6.30;;;7.30;99.90;;;;;;5112101;28;20212;-78
2024/03/12 06:25:32;;;;;;;10.90;5.93;;;7.40;99.90;;;;;;5106462;28;20212;-78
2024/03/12 06:28:05;;;;;;;10.03;5.93;;;7.40;58.40;;;;;;5106520;28;20225;-78
2024/03/12 06:30:32;;;;;;;9.47;6.10;;;7.40;78.50;;;;;;5107228;28;20285;-78
2024/03/12 06:33:01;;;;;;;10.40;6.03;;;7.50;65.90;;;;;;5103564;28;20226;-78
2024/03/12 06:35:27;;;;;;;12.60;6.73;;;7.60;1.00;;;;;;5106747;28;20292;-78
2024/03/12 06:37:55;;;;;;;11.33;6.20;;;7.60;1.00;;;;;;5104552;28;20270;-78
2024/03/12 06:40:25;;;;;;;8.87;5.97;;;7.60;1.00;;;;;;5109110;28;20221;-78
2024/03/12 06:42:53;;;;;;;10.43;6.37;;;7.60;1.00;;;;;;5106506;28;20198;-78
2024/03/12 06:45:21;;;;;;;12.23;6.43;;;7.60;1.00;;;;;;5102144;28;20228;-78
2024/03/12 06:47:49;;;;;;;10.43;6.70;;;7.60;1.00;;;;;;5096248;28;20239;-78
2024/03/12 06:50:16;;;;;;;10.60;5.77;;;7.60;1.00;;;;;;5104892;28;20208;-78
2024/03/12 06:52:47;;;;;;;9.20;5.87;;;7.60;1.00;;;;;;5099115;27;20197;-78
2024/03/12 06:55:15;;;;;;;11.07;6.60;;;7.60;1.00;;;;;;5099448;28;20617;-78
2024/03/12 06:57:47;;;;;;;10.67;6.70;;;7.50;1.00;;;;;;5102364;28;20598;-78
2024/03/12 07:00:26;;;;;;;9.57;6.33;;;7.60;1.00;;;;;;5100937;28;20209;-78
2024/03/12 07:02:53;;;;;;;12.33;6.97;;;7.60;1.00;;;;;;5102505;28;20201;-78
2024/03/12 07:05:22;;;;;;;12.40;6.93;;;7.70;1.00;;;;;;5108147;28;20197;-78
2024/03/12 07:07:49;;;;;;;11.40;6.90;;;7.70;1.00;;;;;;5100788;28;20193;-78
2024/03/12 07:10:18;;;;;;;12.40;7.57;;;7.70;1.00;;;;;;5104616;28;20197;-78
2024/03/12 07:12:45;;;;;;;11.63;7.60;;;7.80;1.00;;;;;;5110745;28;20232;-78
2024/03/12 07:15:12;;;;;;;12.10;6.77;;;7.80;1.00;;;;;;5105861;28;20722;-77
2024/03/12 07:17:41;;;;;;;11.10;7.27;;;7.80;1.00;;;;;;5107874;28;20252;-78
2024/03/12 07:20:10;;;;;;;11.80;7.77;;;7.80;1.00;;;;;;5107759;28;20197;-78
2024/03/12 07:22:37;;;;;;;12.90;7.70;;;7.90;1.00;;;;;;5103763;28;20198;-78
2024/03/12 07:25:06;;;;;;;13.93;7.90;;;7.90;1.00;;;;;;5102503;28;20247;-78
2024/03/12 07:27:32;;;;;;;13.70;8.13;;;7.90;1.00;;;;;;5111442;28;20701;-79
2024/03/12 07:30:00;;;;;;;15.10;7.67;;;8.00;1.00;;;;;;5109195;28;20225;-78
2024/03/12 07:32:27;;;;;;;11.93;7.87;;;8.00;1.00;;;;;;5104368;28;20292;-78
2024/03/12 07:34:55;;;;;;;13.63;7.90;;;8.00;1.00;;;;;;5107682;28;20698;-77
2024/03/12 07:37:22;;;;;;;12.87;8.33;;;8.10;1.00;;;;;;5101427;28;20302;-78
2024/03/12 07:39:49;;;;;;;15.03;8.60;;;8.10;1.00;;;;;;5109288;28;20290;-78
2024/03/12 07:42:19;;;;;;;14.20;8.20;;;8.10;1.00;;;;;;5103577;28;20217;-78
2024/03/12 07:44:47;;;;;;;14.53;8.73;;;8.10;1.00;;;;;;5100715;28;20237;-78
2024/03/12 07:47:14;;;;;;;13.70;8.37;;;8.20;1.00;;;;;;5099901;28;20281;-78
2024/03/12 07:49:41;;;;;;;15.13;8.70;;;8.20;1.00;;;;;;5109782;28;20208;-78
2024/03/12 07:52:11;;;;;;;14.57;8.93;;;8.30;1.00;;;;;;5112501;28;20578;-79
2024/03/12 07:54:38;;;;;;;14.63;9.00;;;8.40;1.00;;;;;;5101755;28;20253;-78
2024/03/12 07:57:07;;;;;;;14.67;8.73;;;8.40;1.00;;;;;;5103827;28;20248;-78
2024/03/12 07:59:35;;;;;;;13.87;8.70;;;8.40;1.00;;;;;;5110979;28;20282;-78
2024/03/12 08:02:11;;;;;;;13.63;8.63;;;8.50;1.00;;;;;;5108130;28;20221;-79
2024/03/12 08:04:38;;;;;;;14.60;8.73;;;8.50;1.00;;;;;;5112430;28;20205;-78
2024/03/12 08:07:04;;;;;;;14.37;9.07;;;8.50;1.00;;;;;;5108986;28;20643;-78
2024/03/12 08:09:33;;;;;;;14.97;7.90;;;8.60;99.90;;;;;;5117246;28;20193;-78
2024/03/12 08:12:00;;;;;;;13.60;8.43;;;8.60;99.90;;;;;;5109751;28;20217;-78
2024/03/12 08:14:27;;;;;;;12.37;8.50;;;8.60;99.90;;;;;;5109449;28;20214;-78
2024/03/12 08:16:54;;;;;;;13.73;7.93;;;8.70;99.90;;;;;;5118525;28;20236;-78
2024/03/12 08:19:25;;;;;;;14.37;8.60;;;8.70;99.90;;;;;;5107870;28;20229;-78
2024/03/12 08:21:52;;;;;;;14.50;9.13;;;8.70;99.90;;;;;;5109824;28;20307;-78
2024/03/12 08:24:19;;;;;;;14.17;9.03;;;8.70;99.90;;;;;;5109922;28;20268;-78
2024/03/12 08:26:47;;;;;;;15.50;8.70;;;8.70;99.90;;;;;;5112870;28;20219;-78
2024/03/12 08:29:16;;;;;;;13.43;8.73;;;8.80;99.90;;;;;;5106554;28;20235;-78
2024/03/12 08:31:43;;;;;;;14.83;8.73;;;8.90;99.90;;;;;;5116878;28;20702;-78
2024/03/12 08:34:15;;;;;;;14.67;9.03;;;8.90;99.90;;;;;;5111476;28;20586;-78
2024/03/12 08:36:42;;;;;;;14.27;8.90;;;8.90;99.90;;;;;;5105413;28;20209;-78
2024/03/12 08:39:11;;;;;;;14.83;9.73;;;9.00;99.90;;;;;;5110243;28;20395;-79
2024/03/12 08:41:38;;;;;;;16.23;9.43;;;9.10;6.80;;;;;;5119009;28;20256;-78
2024/03/12 08:44:07;;;;;;;14.63;8.80;;;9.20;1.00;;;;;;5113008;28;20209;-78
2024/03/12 08:46:34;;;;;;;15.83;10.03;;;9.30;1.00;;;;;;5108560;28;20200;-79
2024/03/12 08:49:01;;;;;;;20.57;12.03;;;9.40;1.00;;;;;;5107892;28;20651;-78
2024/03/12 08:51:33;;;;;;;19.57;12.43;;;9.50;1.00;;;;;;5111746;28;20213;-79
2024/03/12 08:54:01;;;;;;;21.90;12.60;;;9.60;1.00;;;;;;5108238;28;20284;-78
2024/03/12 08:56:29;;;;;;;23.13;13.90;;;9.80;1.00;;;;;;5108905;28;20220;-78
2024/03/12 08:58:57;;;;;;;26.73;14.70;;;9.80;1.00;;;;;;5105330;28;20212;-78
2024/03/12 09:01:25;;;;;;;25.33;14.00;;;10.00;1.00;;;;;;5106911;28;20745;-78
2024/03/12 09:03:52;;;;;;;25.57;15.23;;;10.10;1.00;;;;;;5109300;28;20277;-78
2024/03/12 09:06:20;;;;;;;28.50;17.00;;;10.40;1.00;;;;;;5103698;28;20198;-78
2024/03/12 09:08:49;;;;;;;27.67;16.83;;;10.70;1.00;;;;;;5109298;28;20208;-79
2024/03/12 09:11:17;;;;;;;30.00;17.50;;;10.70;1.00;;;;;;5104652;28;20217;-78
2024/03/12 09:13:45;;;;;;;27.33;16.37;;;10.80;99.90;;;;;;5111089;28;20736;-78
2024/03/12 09:16:12;;;;;;;30.07;18.30;;;10.70;99.90;;;;;;5107190;28;20201;-78
2024/03/12 09:18:42;;;;;;;36.10;17.70;;;10.60;99.90;;;;;;5112712;28;20273;-78
2024/03/12 09:21:10;;;;;;;28.70;16.70;;;10.60;99.90;;;;;;5108109;28;20256;-79
2024/03/12 09:23:38;;;;;;;35.27;17.37;;;10.60;99.90;;;;;;5108844;28;20719;-78
2024/03/12 09:26:06;;;;;;;28.67;17.53;;;10.60;99.90;;;;;;5110111;28;20262;-78
2024/03/12 09:28:33;;;;;;;30.80;18.10;;;10.90;99.90;;;;;;5113267;28;20189;-78
2024/03/12 09:31:00;;;;;;;30.63;18.33;;;10.90;99.90;;;;;;5112671;28;20253;-78
2024/03/12 09:33:27;;;;;;;33.03;18.30;;;11.00;99.90;;;;;;5112746;28;20197;-79
2024/03/12 09:35:56;;;;;;;31.83;18.53;;;10.90;99.90;;;;;;5106240;28;20205;-78
2024/03/12 09:38:23;;;;;;;30.83;18.10;;;10.70;99.90;;;;;;5114285;28;20714;-78
2024/03/12 09:40:51;;;;;;;30.70;18.23;;;10.50;99.90;;;;;;5117586;28;20221;-78
2024/03/12 09:43:21;;;;;;;31.70;17.90;;;10.40;99.90;;;;;;5116946;28;20262;-77
2024/03/12 09:45:49;;;;;;;33.27;18.53;;;10.40;99.90;;;;;;5105063;28;20247;-78
2024/03/12 09:48:16;;;;;;;31.40;17.43;;;10.40;99.90;;;;;;5099692;28;20201;-78
2024/03/12 09:50:44;;;;;;;28.03;16.50;;;10.50;99.90;;;;;;5107201;28;20703;-78
2024/03/12 09:53:14;;;;;;;27.67;16.17;;;10.60;99.90;;;;;;5109830;28;20548;-78
2024/03/12 09:55:42;;;;;;;28.77;16.13;;;10.50;99.90;;;;;;5100100;28;20233;-79
2024/03/12 09:58:09;;;;;;;29.60;16.40;;;10.50;99.90;;;;;;5103332;28;20599;-78
2024/03/12 10:00:36;;;;;;;28.40;16.87;;;10.60;99.90;;;;;;5102928;28;20267;-78
2024/03/12 10:03:05;;;;;;;27.20;16.23;;;10.50;99.90;;;;;;5106264;28;20197;-79
2024/03/12 10:05:33;;;;;;;29.43;16.20;;;10.60;99.90;;;;;;5105259;28;20252;-78
2024/03/12 10:08:07;;;;;;;25.70;14.63;;;10.50;99.90;;;;;;5108832;28;20197;-78
2024/03/12 10:10:38;;;;;;;26.37;15.13;;;10.40;99.90;;;;;;5105141;28;20217;-78
2024/03/12 10:13:05;;;;;;;25.63;14.93;;;10.40;99.90;;;;;;5112606;28;20566;-78
2024/03/12 10:15:32;;;;;;;27.30;15.30;;;10.40;99.90;;;;;;5110649;28;20193;-78
2024/03/12 10:18:00;;;;;;;27.57;15.50;;;10.30;1.00;;;;;;5107273;28;20213;-78
2024/03/12 10:20:27;;;;;;;28.90;17.13;;;10.40;1.00;;;;;;5111435;28;20217;-78
2024/03/12 10:23:09;;;;;;;27.90;15.47;;;10.40;1.00;;;;;;5106695;28;20231;-78
2024/03/12 10:25:37;;;;;;;25.50;14.20;;;10.30;1.00;;;;;;5109999;28;20205;-78
2024/03/12 10:28:07;;;;;;;26.80;15.03;;;10.30;1.00;;;;;;5110286;28;20257;-78
2024/03/12 10:30:34;;;;;;;27.17;15.63;;;10.20;1.00;;;;;;5109811;28;20619;-78
2024/03/12 10:33:12;;;;;;;27.17;16.10;;;10.30;1.00;;;;;;5103595;28;20590;-79
2024/03/12 10:35:41;;;;;;;27.03;15.83;;;10.30;1.00;;;;;;5112707;28;20205;-78
2024/03/12 10:38:11;;;;;;;28.03;15.50;;;10.30;1.00;;;;;;5112254;28;20221;-78
2024/03/12 10:40:39;;;;;;;27.27;15.27;;;10.30;1.00;;;;;;5111185;28;20226;-78
2024/03/12 10:43:08;;;;;;;27.97;16.27;;;10.40;1.00;;;;;;5110842;28;20197;-78
2024/03/12 10:45:38;;;;;;;27.23;16.17;;;10.30;1.00;;;;;;5101367;28;20216;-78
2024/03/12 10:48:09;;;;;;;29.33;16.47;;;10.30;1.00;;;;;;5105809;28;20196;-78
2024/03/12 10:50:38;;;;;;;32.23;17.37;;;10.30;1.00;;;;;;5104722;28;20401;-78
2024/03/12 10:53:07;;;;;;;29.87;16.90;;;10.30;1.00;;;;;;5112384;28;20265;-78
2024/03/12 10:55:35;;;;;;;28.47;16.03;;;10.30;1.00;;;;;;5105750;28;20197;-78
2024/03/12 10:58:08;;;;;;;29.40;16.47;;;10.30;1.00;;;;;;5104406;28;20591;-78
2024/03/12 11:00:39;;;;;;;28.07;17.33;;;10.30;1.00;;;;;;5101858;28;20214;-78
2024/03/12 11:03:09;;;;;;;32.03;17.50;;;10.30;1.00;;;;;;5107602;28;20201;-79
2024/03/12 11:05:38;;;;;;;30.27;17.47;;;10.20;1.00;;;;;;5103518;28;20213;-78
2024/03/12 11:08:09;;;;;;;32.03;17.20;;;10.20;1.00;;;;;;5103068;28;20261;-78
2024/03/12 11:10:37;;;;;;;31.37;16.47;;;10.10;33.40;;;;;;5109108;28;20312;-79
2024/03/12 11:13:07;;;;;;;31.57;17.50;;;10.10;99.90;;;;;;5105968;28;20235;-79
2024/03/12 11:15:35;;;;;;;30.40;17.03;;;10.20;52.80;;;;;;5106697;28;20204;-78
2024/03/12 11:18:03;;;;;;;30.63;16.87;;;10.30;91.40;;;;;;5106191;28;20737;-78
2024/03/12 11:20:30;;;;;;;31.43;17.67;;;10.30;1.00;;;;;;5105077;28;20304;-78
2024/03/12 11:23:00;;;;;;;29.33;16.97;;;10.50;1.00;;;;;;5105128;28;20211;-78
2024/03/12 11:25:43;;;;;;;29.90;16.67;;;10.60;1.00;;;;;;5102195;28;20522;-78
2024/03/12 11:28:25;;;;;;;30.30;16.63;;;10.70;1.00;;;;;;5106443;28;20189;-78
2024/03/12 11:31:01;;;;;;;30.17;16.97;;;10.90;1.00;;;;;;5109828;28;20595;-79
2024/03/12 11:33:45;;;;;;;30.07;16.77;;;11.00;1.00;;;;;;5101354;28;20304;-79
2024/03/12 11:36:20;;;;;;;28.07;17.43;;;11.00;1.00;;;;;;5097280;28;20266;-79
2024/03/12 11:38:47;;;;;;;27.33;15.97;;;11.10;99.90;;;;;;5108605;28;20212;-79
2024/03/12 11:41:16;;;;;;;25.33;15.07;;;11.20;99.90;;;;;;5105084;28;20221;-78
2024/03/12 11:43:44;;;;;;;23.80;14.27;;;11.10;99.90;;;;;;5112624;28;20716;-78
2024/03/12 11:46:16;;;;;;;21.63;12.63;;;11.00;99.90;;;;;;5102364;28;20197;-78
2024/03/12 11:48:45;;;;;;;22.27;13.07;;;11.00;99.90;;;;;;5102802;28;21037;-78
2024/03/12 11:51:13;;;;;;;22.67;12.17;;;10.90;99.90;;;;;;5096861;28;20275;-79
2024/03/12 11:53:41;;;;;;;20.40;12.77;;;10.90;99.90;;;;;;5099424;28;20197;-78
2024/03/12 11:56:15;;;;;;;20.27;11.80;;;10.80;99.90;;;;;;5111650;28;20224;-78
2024/03/12 11:58:48;;;;;;;20.10;11.80;;;10.70;99.90;;;;;;5109884;28;20302;-78
2024/03/12 12:01:20;;;;;;;19.77;11.93;;;10.60;99.90;;;;;;5108161;28;20249;-78
2024/03/12 12:03:49;;;;;;;19.70;11.70;;;10.50;99.90;;;;;;5105855;28;20243;-78
2024/03/12 12:06:19;;;;;;;20.63;11.20;;;10.50;99.90;;;;;;5110315;28;20193;-79
2024/03/12 12:08:47;;;;;;;19.27;11.93;;;10.50;99.90;;;;;;5104345;28;20197;-78
2024/03/12 12:11:16;;;;;;;20.83;11.77;;;10.60;1.00;;;;;;5099677;28;20217;-78
2024/03/12 12:13:47;;;;;;;19.67;11.50;;;10.70;99.90;;;;;;5105184;28;20201;-78
2024/03/12 12:16:16;;;;;;;20.77;11.70;;;10.60;99.90;;;;;;5107911;28;20233;-79
2024/03/12 12:18:44;;;;;;;20.33;11.50;;;10.60;1.00;;;;;;5112778;28;20216;-79
2024/03/12 12:21:14;;;;;;;19.67;11.97;;;10.60;1.00;;;;;;5101593;28;20220;-79
2024/03/12 12:23:43;;;;;;;20.70;11.03;;;10.60;1.00;;;;;;5111068;28;20210;-78
2024/03/12 12:26:12;;;;;;;19.23;11.17;;;10.60;1.00;;;;;;5106206;28;20220;-79
2024/03/12 12:28:40;;;;;;;19.67;11.60;;;10.60;1.00;;;;;;5110214;28;20197;-78
2024/03/12 12:31:12;;;;;;;20.30;11.73;;;10.70;1.00;;;;;;5108109;28;20284;-80
2024/03/12 12:33:41;;;;;;;20.10;11.77;;;10.70;1.00;;;;;;5112613;28;20207;-81
2024/03/12 12:36:12;;;;;;;19.57;11.87;;;10.70;1.00;;;;;;5115295;28;20204;-79
2024/03/12 12:38:41;;;;;;;18.27;10.73;;;10.80;1.00;;;;;;5115454;28;20213;-79
2024/03/12 12:41:08;;;;;;;18.60;10.67;;;10.80;99.90;;;;;;5118352;28;20699;-82
2024/03/12 12:43:36;;;;;;;17.23;10.43;;;10.80;99.90;;;;;;5116753;27;20611;-79
2024/03/12 12:46:05;;;;;;;17.23;10.13;;;10.70;99.90;;;;;;5112952;28;20198;-82
2024/03/12 12:48:35;;;;;;;15.53;8.40;;;10.50;1.00;;;;;;5113190;28;20193;-80
2024/03/12 12:51:03;;;;;;;16.83;9.23;;;10.50;1.00;;;;;;5109361;28;20213;-79
2024/03/12 12:53:31;;;;;;;15.57;8.93;;;10.40;1.00;;;;;;5106830;28;20649;-78
2024/03/12 12:55:59;;;;;;;14.67;8.33;;;10.30;1.00;;;;;;5109636;28;20288;-80
2024/03/12 12:58:28;;;;;;;15.13;8.67;;;10.40;1.00;;;;;;5110949;28;20218;-81
2024/03/12 13:01:01;;;;;;;13.90;8.87;;;10.40;1.00;;;;;;5110606;28;20227;-80